Time;durP1;ratioP1;P1;durP2;ratioP2;P2;SDS_P1;SDS_P2;PMS_P1;PMS_P2;Temp;Humidity;BMP_temperature;BMP_pressure;BME280_temperature;BME280_humidity;BME280_pressure;Samples;Min_cycle;Max_cycle;Signal;HPM_P1;HPM_P2
2022/11/05 00:10:25;;;;;;;1999.90;999.90;;;;;;;9.63;100.00;97111.34;5096534;28;20573;-80
2022/11/05 00:18:22;;;;;;;1999.90;999.90;;;;;;;9.48;100.00;97109.78;5109081;28;20146;-78
2022/11/05 00:20:48;;;;;;;1999.90;999.90;;;;;;;9.46;100.00;97130.31;5101522;28;20114;-78
2022/11/05 00:26:00;;;;;;;1999.90;999.90;;;;;;;9.47;100.00;97149.09;5103164;28;20080;-76
2022/11/05 00:28:27;;;;;;;1999.90;999.90;;;;;;;9.50;100.00;97145.75;5098005;28;20040;-76
2022/11/05 00:31:05;;;;;;;1999.90;999.90;;;;;;;9.43;100.00;97139.91;5103309;28;20024;-79
2022/11/05 00:33:31;;;;;;;1999.90;999.90;;;;;;;9.36;100.00;97145.00;5103325;28;20016;-76
2022/11/05 00:35:57;;;;;;;1999.90;999.90;;;;;;;9.30;100.00;97148.97;5101695;28;20019;-77
2022/11/05 00:38:24;;;;;;;1999.90;999.90;;;;;;;9.33;100.00;97147.53;5085045;28;20024;-80
2022/11/05 00:40:49;;;;;;;1999.90;999.90;;;;;;;9.32;100.00;97154.09;5107932;28;20024;-76
2022/11/05 00:46:00;;;;;;;1999.90;999.90;;;;;;;9.32;100.00;97168.56;5110400;28;20030;-76
2022/11/05 00:51:11;;;;;;;1999.90;999.90;;;;;;;9.35;100.00;97183.50;5099033;28;20046;-75
2022/11/05 00:53:37;;;;;;;1999.90;999.90;;;;;;;9.35;100.00;97178.84;5104274;28;20020;-78
2022/11/05 00:56:02;;;;;;;1999.90;999.90;;;;;;;9.34;100.00;97176.41;5101999;28;20042;-79
2022/11/05 00:58:28;;;;;;;1999.90;999.90;;;;;;;9.23;100.00;97178.56;5103176;28;20468;-77
2022/11/05 01:00:56;;;;;;;1999.90;999.90;;;;;;;9.24;100.00;97187.56;5104551;28;20026;-78
2022/11/05 01:03:27;;;;;;;1999.90;999.90;;;;;;;9.18;100.00;97186.84;5100678;28;20114;-78
2022/11/05 01:06:04;;;;;;;1999.90;999.90;;;;;;;9.08;100.00;97190.59;5104456;28;20515;-79
2022/11/05 01:08:29;;;;;;;1999.90;999.90;;;;;;;9.04;100.00;97197.00;5105201;28;20088;-74
2022/11/05 01:10:56;;;;;;;1999.90;999.90;;;;;;;9.12;100.00;97194.34;5103797;28;20074;-78
2022/11/05 01:13:28;;;;;;;1999.90;999.90;;;;;;;9.14;100.00;97194.06;5104726;28;20544;-78
2022/11/05 01:15:54;;;;;;;1999.90;999.90;;;;;;;9.11;100.00;97178.28;5106969;28;20149;-79
2022/11/05 01:18:22;;;;;;;1999.90;999.90;;;;;;;9.13;100.00;97181.50;5103823;28;20031;-78
2022/11/05 01:20:48;;;;;;;1999.90;999.90;;;;;;;9.15;100.00;97180.09;5102073;28;20106;-77
2022/11/05 01:23:14;;;;;;;1999.90;999.90;;;;;;;9.12;100.00;97183.44;5099299;28;20173;-76
2022/11/05 01:25:40;;;;;;;1999.90;999.90;;;;;;;9.16;100.00;97186.38;5102851;28;20039;-81
2022/11/05 01:28:08;;;;;;;1999.90;999.90;;;;;;;9.07;100.00;97188.19;5099629;28;20024;-78
2022/11/05 01:30:33;;;;;;;1999.90;999.90;;;;;;;9.05;100.00;97179.53;5093494;28;20503;-82
2022/11/05 01:32:59;;;;;;;1999.90;999.90;;;;;;;9.17;100.00;97188.00;5099421;28;20111;-74
2022/11/05 01:35:24;;;;;;;1999.90;999.90;;;;;;;9.18;100.00;97178.66;5100688;28;20522;-76
2022/11/05 01:37:50;;;;;;;1999.90;999.90;;;;;;;9.22;100.00;97159.78;5103164;28;20043;-75
2022/11/05 01:40:21;;;;;;;1999.90;999.90;;;;;;;9.22;100.00;97155.13;5083732;28;20026;-75
2022/11/05 01:42:47;;;;;;;1999.90;999.90;;;;;;;9.20;100.00;97162.81;5097128;28;20097;-76
2022/11/05 01:45:22;;;;;;;1999.90;999.90;;;;;;;9.03;100.00;97166.16;5105357;28;20032;-75
2022/11/05 01:47:55;;;;;;;1999.90;999.90;;;;;;;9.06;100.00;97164.75;5101755;28;20415;-75
2022/11/05 01:50:42;;;;;;;1999.90;999.90;;;;;;;9.10;100.00;97172.03;5096504;28;20559;-73
2022/11/05 01:53:28;;;;;;;1999.90;999.90;;;;;;;9.01;100.00;97176.59;5104507;28;20076;-76
2022/11/05 01:56:05;;;;;;;;;;;;;;;9.08;100.00;97178.91;5094481;28;20031;-75
2022/11/05 01:58:38;;;;;;;1999.90;999.90;;;;;;;9.13;100.00;97176.88;5082915;28;19905;-85
2022/11/05 02:01:03;;;;;;;1999.90;999.90;;;;;;;9.06;100.00;97181.09;5103614;28;20775;-85
2022/11/05 02:03:30;;;;;;;1999.90;999.90;;;;;;;9.13;100.00;97176.88;5100898;28;20040;-83
2022/11/05 02:05:57;;;;;;;1999.90;999.90;;;;;;;9.09;100.00;97164.94;5093101;28;20028;-84
2022/11/05 02:08:35;;;;;;;1999.90;999.90;;;;;;;9.10;100.00;97154.84;5108364;28;20036;-81
2022/11/05 02:11:01;;;;;;;1999.90;999.90;;;;;;;9.10;100.00;97160.31;5103734;28;20729;-85
2022/11/05 02:13:26;;;;;;;1999.90;999.90;;;;;;;9.00;100.00;97165.97;5099885;28;20039;-81
2022/11/05 02:16:19;;;;;;;1999.90;999.90;;;;;;;8.93;100.00;97163.66;5110167;28;20032;-83
2022/11/05 02:19:19;;;;;;;1999.90;999.90;;;;;;;8.98;100.00;97170.94;5101123;28;20369;-85
2022/11/05 02:22:03;;;;;;;1999.90;999.90;;;;;;;8.91;100.00;97165.06;5097425;28;20032;-85
2022/11/05 02:24:48;;;;;;;1999.90;999.90;;;;;;;8.96;100.00;97164.94;5075082;28;20024;-81
2022/11/05 02:27:29;;;;;;;1999.90;999.90;;;;;;;8.93;100.00;97160.09;5105415;28;20077;-86
2022/11/05 02:30:06;;;;;;;1999.90;999.90;;;;;;;8.95;100.00;97172.34;5097931;28;20456;-88
2022/11/05 02:32:36;;;;;;;1999.90;999.90;;;;;;;8.91;100.00;97168.59;5107400;28;20024;-84
2022/11/05 02:35:19;;;;;;;1999.90;999.90;;;;;;;8.87;100.00;97185.88;5102349;28;20379;-85
2022/11/05 02:37:53;;;;;;;1999.90;999.90;;;;;;;8.87;100.00;97199.50;5096079;28;20088;-80
2022/11/05 02:40:35;;;;;;;1999.90;999.90;;;;;;;8.94;100.00;97186.28;5097729;28;20047;-84
2022/11/05 02:43:14;;;;;;;1999.90;999.90;;;;;;;8.83;100.00;97182.16;5113735;28;20472;-82
2022/11/05 02:46:07;;;;;;;1999.90;999.90;;;;;;;8.78;100.00;97190.41;5114212;28;20561;-87
2022/11/05 02:48:57;;;;;;;1999.90;999.90;;;;;;;8.78;100.00;97193.94;5110022;28;20040;-88
2022/11/05 02:51:26;;;;;;;1999.90;999.90;;;;;;;8.76;100.00;97188.00;5110656;28;20031;-85
2022/11/05 02:54:02;;;;;;;1999.90;999.90;;;;;;;8.82;100.00;97194.16;5119593;28;20023;-84
2022/11/05 02:56:32;;;;;;;1999.90;999.90;;;;;;;8.84;100.00;97186.47;5108274;28;20043;-85
2022/11/05 02:58:58;;;;;;;1999.90;999.90;;;;;;;8.79;100.00;97186.59;5108335;28;20035;-78
2022/11/05 03:01:23;;;;;;;1999.90;999.90;;;;;;;8.74;100.00;97194.88;5111321;28;20113;-79
2022/11/05 03:03:56;;;;;;;1999.90;999.90;;;;;;;8.72;100.00;97200.63;5116621;28;20073;-85
2022/11/05 03:06:36;;;;;;;1999.90;999.90;;;;;;;8.79;100.00;97198.31;5100426;28;20059;-83
2022/11/05 03:09:54;;;;;;;1999.90;999.90;;;;;;;8.74;100.00;97192.94;5105815;28;20024;-83
2022/11/05 03:12:25;;;;;;;1999.90;999.90;;;;;;;8.87;100.00;97191.31;5101166;28;20460;-79
2022/11/05 03:15:05;;;;;;;1999.90;999.90;;;;;;;8.87;100.00;97194.84;5108194;28;20008;-85
2022/11/05 03:17:52;;;;;;;1999.90;999.90;;;;;;;8.78;100.00;97201.31;5112489;28;20092;-83
2022/11/05 03:20:55;;;;;;;1999.90;999.90;;;;;;;8.81;100.00;97195.25;5100778;28;20067;-85
2022/11/05 03:23:28;;;;;;;1999.90;999.90;;;;;;;8.81;100.00;97189.81;5103391;28;20533;-82
2022/11/05 03:26:16;;;;;;;1999.90;999.90;;;;;;;8.78;100.00;97190.41;5112476;28;20081;-88
2022/11/05 03:28:47;;;;;;;1999.90;999.90;;;;;;;8.76;100.00;97189.91;5103839;28;20032;-82
2022/11/05 03:31:15;;;;;;;1999.90;999.90;;;;;;;8.71;100.00;97173.66;5117486;28;20128;-85
2022/11/05 03:33:43;;;;;;;1999.90;999.90;;;;;;;8.82;100.00;97175.06;5101226;28;20021;-84
2022/11/05 03:36:18;;;;;;;1999.90;999.90;;;;;;;8.69;100.00;97181.31;5099314;28;20030;-86
2022/11/05 03:38:46;;;;;;;;;;;;;;;8.66;100.00;97192.84;5109746;28;20028;-87
2022/11/05 03:41:14;;;;;;;1999.90;999.90;;;;;;;8.68;100.00;97202.31;5110250;28;19971;-83
2022/11/05 03:43:45;;;;;;;1999.90;999.90;;;;;;;8.66;100.00;97211.91;5101744;28;20036;-82
2022/11/05 03:46:21;;;;;;;1999.90;999.90;;;;;;;8.71;100.00;97222.75;5101135;28;20022;-87
2022/11/05 03:48:52;;;;;;;1999.90;999.90;;;;;;;8.70;100.00;97226.56;5108419;28;20068;-84
2022/11/05 03:51:26;;;;;;;1999.90;999.90;;;;;;;8.70;100.00;97215.66;5097188;28;20468;-85
2022/11/05 03:53:56;;;;;;;1999.90;999.90;;;;;;;8.67;100.00;97222.53;5113827;28;20034;-88
2022/11/05 03:56:29;;;;;;;1999.90;999.90;;;;;;;8.74;100.00;97230.31;5103532;28;20114;-88
2022/11/05 03:58:56;;;;;;;1999.90;999.90;;;;;;;8.69;100.00;97225.75;5106979;28;20028;-86
2022/11/05 04:01:22;;;;;;;1999.90;999.90;;;;;;;8.68;100.00;97235.03;5109187;28;20027;-85
2022/11/05 04:03:47;;;;;;;1999.90;999.90;;;;;;;8.60;100.00;97233.00;5099230;28;20052;-84
2022/11/05 04:14:25;;;;;;;1999.90;999.90;;;;;;;8.45;100.00;97236.81;5101077;28;20076;-86
2022/11/05 04:17:06;;;;;;;1999.90;999.90;;;;;;;8.48;100.00;97232.69;5116348;28;20015;-85
2022/11/05 04:25:07;;;;;;;1999.90;999.90;;;;;;;8.56;100.00;97257.31;5107252;28;20031;-87
2022/11/05 04:27:32;;;;;;;1999.90;999.90;;;;;;;8.53;100.00;97252.47;5111948;28;20487;-85
2022/11/05 04:32:41;;;;;;;1999.90;999.90;;;;;;;8.48;100.00;97254.50;5108428;28;20762;-82
2022/11/05 04:35:07;;;;;;;1999.90;999.90;;;;;;;8.41;100.00;97252.16;5107365;28;20107;-88
2022/11/05 04:37:32;;;;;;;1999.90;999.90;;;;;;;8.43;100.00;97255.38;5105614;28;20107;-84
2022/11/05 04:39:57;;;;;;;1999.90;999.90;;;;;;;8.40;100.00;97264.16;5118801;28;20468;-84
2022/11/05 04:42:23;;;;;;;1999.90;999.90;;;;;;;8.47;100.00;97267.31;5107152;28;20395;-87
2022/11/05 04:44:48;;;;;;;1999.90;999.90;;;;;;;8.42;100.00;97270.13;5116058;28;20065;-84
2022/11/05 04:47:13;;;;;;;1999.90;999.90;;;;;;;8.51;100.00;97281.16;5103101;28;20016;-79
2022/11/05 04:49:39;;;;;;;1999.90;999.90;;;;;;;8.53;100.00;97293.34;5109538;28;20027;-86
2022/11/05 04:52:04;;;;;;;1999.90;999.90;;;;;;;8.48;100.00;97300.81;5111835;28;20024;-87
2022/11/05 04:54:30;;;;;;;1999.90;999.90;;;;;;;8.47;100.00;97305.47;5111645;28;20023;-86
2022/11/05 04:56:55;;;;;;;1999.90;999.90;;;;;;;8.38;100.00;97299.06;5115690;28;20028;-85
2022/11/05 04:59:20;;;;;;;1999.90;999.90;;;;;;;8.39;100.00;97303.41;5112214;28;20027;-86
2022/11/05 05:01:50;;;;;;;1999.90;999.90;;;;;;;8.40;100.00;97305.03;5114630;28;20059;-86
2022/11/05 05:04:16;;;;;;;1999.90;999.90;;;;;;;8.45;100.00;97307.69;5102451;28;20051;-86
2022/11/05 05:06:41;;;;;;;1999.90;999.90;;;;;;;8.49;100.00;97307.88;5107016;28;20036;-86
2022/11/05 05:09:06;;;;;;;1999.90;999.90;;;;;;;8.43;100.00;97309.88;5115410;28;20061;-86
2022/11/05 05:11:32;;;;;;;1999.90;999.90;;;;;;;8.30;100.00;97294.28;5100202;28;20055;-84
2022/11/05 05:13:58;;;;;;;1999.90;999.90;;;;;;;8.33;100.00;97299.13;5094941;28;20139;-82
2022/11/05 05:16:25;;;;;;;1999.90;999.90;;;;;;;8.41;100.00;97294.94;5108050;28;20536;-81
2022/11/05 05:18:50;;;;;;;1999.90;999.90;;;;;;;8.34;100.00;97298.03;5097782;28;20095;-80
2022/11/05 05:24:01;;;;;;;1999.90;999.90;;;;;;;8.34;100.00;97308.13;5097903;28;20031;-87
2022/11/05 05:26:27;;;;;;;1999.90;999.90;;;;;;;8.42;100.00;97324.63;5110005;28;20028;-85
2022/11/05 05:28:52;;;;;;;1999.90;999.90;;;;;;;8.49;100.00;97327.75;5094964;28;20040;-89
2022/11/05 05:31:19;;;;;;;1999.90;999.90;;;;;;;8.46;100.00;97324.81;5106498;28;20020;-84
2022/11/05 05:33:44;;;;;;;1999.90;999.90;;;;;;;8.42;100.00;97334.72;5096570;28;20069;-84
2022/11/05 05:36:09;;;;;;;1999.90;999.90;;;;;;;8.44;100.00;97344.19;5109936;28;20047;-82
2022/11/05 05:38:35;;;;;;;1999.90;999.90;;;;;;;8.48;100.00;97350.69;5099560;28;20035;-84
2022/11/05 05:41:00;;;;;;;1999.90;999.90;;;;;;;8.55;100.00;97356.56;5114322;28;20016;-84
2022/11/05 05:43:30;;;;;;;1999.90;999.90;;;;;;;8.60;100.00;97359.22;5113677;28;20024;-86
2022/11/05 05:45:56;;;;;;;1999.90;999.90;;;;;;;8.52;100.00;97357.16;5111582;28;20031;-82
2022/11/05 05:48:22;;;;;;;1999.90;999.90;;;;;;;8.57;100.00;97370.72;5113465;28;20058;-86
2022/11/05 05:50:48;;;;;;;1999.90;999.90;;;;;;;8.50;100.00;97375.72;5114388;28;20030;-83
2022/11/05 05:53:13;;;;;;;1999.90;999.90;;;;;;;8.54;100.00;97368.59;5107311;28;20027;-84
2022/11/05 05:55:38;;;;;;;1999.90;999.90;;;;;;;8.50;100.00;97374.91;5108104;28;20059;-78
2022/11/05 05:58:05;;;;;;;1999.90;999.90;;;;;;;8.48;100.00;97383.41;5093644;28;20096;-75
2022/11/05 06:00:30;;;;;;;1999.90;999.90;;;;;;;8.57;100.00;97376.16;5104581;28;20036;-74
2022/11/05 06:02:55;;;;;;;1999.90;999.90;;;;;;;8.54;100.00;97390.38;5099680;28;20476;-76
2022/11/05 06:05:21;;;;;;;1999.90;999.90;;;;;;;8.50;100.00;97386.63;5097337;28;20051;-75
2022/11/05 06:07:54;;;;;;;1999.90;999.90;;;;;;;8.50;100.00;97388.53;5106704;28;20032;-76
2022/11/05 06:10:19;;;;;;;1999.90;999.90;;;;;;;8.56;100.00;97404.50;5094674;28;20421;-78
2022/11/05 06:12:44;;;;;;;1999.90;999.90;;;;;;;8.51;100.00;97395.63;5102860;28;20024;-75
2022/11/05 06:15:10;;;;;;;1999.90;999.90;;;;;;;8.47;100.00;97409.03;5101568;28;20046;-75
2022/11/05 06:17:35;;;;;;;1999.90;999.90;;;;;;;8.55;100.00;97411.06;5110388;28;20031;-76
2022/11/05 06:20:00;;;;;;;1999.90;999.90;;;;;;;8.59;100.00;97411.28;5092800;28;20055;-77
2022/11/05 06:22:26;;;;;;;1999.90;999.90;;;;;;;8.52;100.00;97405.41;5105592;28;20540;-75
2022/11/05 06:24:51;;;;;;;1999.90;999.90;;;;;;;8.49;100.00;97409.53;5099535;28;20031;-74
2022/11/05 06:27:16;;;;;;;1999.90;999.90;;;;;;;8.55;100.00;97413.78;5097727;28;20067;-75
2022/11/05 06:29:41;;;;;;;1999.90;999.90;;;;;;;8.59;100.00;97412.09;5106032;28;20106;-76
2022/11/05 06:32:07;;;;;;;1999.90;999.90;;;;;;;8.61;100.00;97415.34;5093433;28;20527;-75
2022/11/05 06:34:32;;;;;;;1999.90;999.90;;;;;;;8.65;100.00;97420.19;5104202;28;20032;-77
2022/11/05 06:36:58;;;;;;;1999.90;999.90;;;;;;;8.61;100.00;97426.22;5099836;28;20376;-74
2022/11/05 06:39:23;;;;;;;1999.90;999.90;;;;;;;8.67;100.00;97423.44;5096182;28;20025;-76
2022/11/05 06:41:49;;;;;;;1999.90;999.90;;;;;;;8.64;100.00;97433.03;5107147;28;20031;-76
2022/11/05 06:44:14;;;;;;;1999.90;999.90;;;;;;;8.63;100.00;97434.13;5092516;28;20019;-76
2022/11/05 06:46:39;;;;;;;1999.90;999.90;;;;;;;8.72;100.00;97443.25;5079093;28;20039;-77
2022/11/05 06:49:05;;;;;;;1999.90;999.90;;;;;;;8.83;100.00;97452.91;5109635;28;20023;-76
2022/11/05 06:51:30;;;;;;;1999.90;999.90;;;;;;;8.84;100.00;97454.53;5095623;28;20035;-74
2022/11/05 06:53:55;;;;;;;1999.90;999.90;;;;;;;8.87;100.00;97461.28;5106691;28;20032;-74
2022/11/05 06:56:21;;;;;;;1999.90;999.90;;;;;;;9.01;100.00;97467.63;5077739;28;20015;-83
2022/11/05 06:58:46;;;;;;;1999.90;999.90;;;;;;;8.96;100.00;97481.34;5114962;28;20366;-88
2022/11/05 07:01:11;;;;;;;1999.90;999.90;;;;;;;9.10;100.00;97480.31;5098363;28;20028;-88
2022/11/05 07:03:37;;;;;;;1999.90;999.90;;;;;;;9.02;100.00;97475.50;5113177;28;20401;-82
2022/11/05 07:06:03;;;;;;;1999.90;999.90;;;;;;;9.12;100.00;97475.34;5102665;28;20032;-86
2022/11/05 07:08:33;;;;;;;1999.90;999.90;;;;;;;9.23;100.00;97486.09;5117847;28;20020;-82
2022/11/05 07:10:59;;;;;;;1999.90;999.90;;;;;;;9.06;100.00;97481.19;5106921;28;20119;-84
2022/11/05 07:13:25;;;;;;;1999.90;999.90;;;;;;;9.13;100.00;97496.06;5117148;28;20063;-88
2022/11/05 07:15:50;;;;;;;1999.90;999.90;;;;;;;9.10;100.00;97487.66;5107999;28;20047;-89
2022/11/05 07:18:15;;;;;;;1999.90;999.90;;;;;;;9.13;100.00;97498.00;5104829;28;20035;-83
2022/11/05 07:20:41;;;;;;;1999.90;999.90;;;;;;;9.17;100.00;97504.47;5097524;28;20062;-84
2022/11/05 07:23:10;;;;;;;1999.90;999.90;;;;;;;9.17;100.00;97495.47;5109758;28;20448;-85
2022/11/05 07:25:36;;;;;;;1999.90;999.90;;;;;;;9.16;100.00;97497.41;5103919;28;20028;-86
2022/11/05 07:28:02;;;;;;;1999.90;999.90;;;;;;;9.24;100.00;97504.09;5116676;28;20031;-82
2022/11/05 07:30:27;;;;;;;1999.90;999.90;;;;;;;9.17;100.00;97498.22;5120638;28;20035;-80
2022/11/05 07:32:53;;;;;;;1999.90;999.90;;;;;;;9.22;100.00;97495.38;5114166;28;20012;-83
2022/11/05 07:35:18;;;;;;;1999.90;999.90;;;;;;;9.17;100.00;97498.22;5120338;28;20034;-82
2022/11/05 07:37:45;;;;;;;1999.90;999.90;;;;;;;9.23;100.00;97497.84;5101977;28;20376;-84
2022/11/05 07:40:12;;;;;;;1999.90;999.90;;;;;;;9.24;100.00;97498.66;5113980;28;20039;-79
2022/11/05 07:42:47;;;;;;;1999.90;999.90;;;;;;;9.21;100.00;97507.44;5100926;28;20038;-74
2022/11/05 07:45:13;;;;;;;1999.90;999.90;;;;;;;9.23;100.00;97506.03;5111618;28;20047;-78
2022/11/05 07:47:43;;;;;;;1999.90;999.90;;;;;;;9.43;100.00;97507.63;5106399;28;20392;-78
2022/11/05 07:50:09;;;;;;;1999.90;999.90;;;;;;;9.33;100.00;97514.03;5111002;28;20821;-82
2022/11/05 07:52:34;;;;;;;1999.90;999.90;;;;;;;9.40;100.00;97511.72;5101702;28;20106;-82
2022/11/05 07:54:59;;;;;;;1999.90;999.90;;;;;;;9.40;100.00;97509.00;5104431;28;20031;-85
2022/11/05 07:57:25;;;;;;;1999.90;999.90;;;;;;;9.51;100.00;97505.00;5108488;28;20123;-78
2022/11/05 07:59:50;;;;;;;1999.90;999.90;;;;;;;9.39;100.00;97510.13;5096188;28;20062;-84
2022/11/05 08:02:15;;;;;;;1999.90;999.90;;;;;;;9.42;100.00;97514.16;5109132;28;20073;-78
2022/11/05 08:04:41;;;;;;;1999.90;999.90;;;;;;;9.44;100.00;97523.69;5101642;28;20136;-80
2022/11/05 08:07:07;;;;;;;1999.90;999.90;;;;;;;9.50;100.00;97525.22;5103581;28;20036;-82
2022/11/05 08:09:32;;;;;;;1999.90;999.90;;;;;;;9.55;100.00;97516.91;5094906;28;20052;-87
2022/11/05 08:11:58;;;;;;;1999.90;999.90;;;;;;;9.55;100.00;97527.06;5110583;28;20144;-81
2022/11/05 08:14:23;;;;;;;1999.90;999.90;;;;;;;9.54;100.00;97520.78;5100589;28;20024;-84
2022/11/05 08:16:49;;;;;;;1999.90;999.90;;;;;;;9.58;100.00;97526.47;5110381;28;20046;-85
2022/11/05 08:19:14;;;;;;;1999.90;999.90;;;;;;;9.68;100.00;97528.97;5109692;28;20043;-87
2022/11/05 08:21:39;;;;;;;1999.90;999.90;;;;;;;9.79;100.00;97535.91;5102374;28;20028;-76
2022/11/05 08:24:05;;;;;;;1999.90;999.90;;;;;;;9.66;100.00;97523.84;5109939;28;20650;-79
2022/11/05 08:26:30;;;;;;;1999.90;999.90;;;;;;;9.60;100.00;97529.69;5098918;28;20028;-76
2022/11/05 08:28:55;;;;;;;1999.90;999.90;;;;;;;9.60;100.00;97530.50;5113084;28;20104;-76
2022/11/05 08:31:21;;;;;;;1999.90;999.90;;;;;;;9.57;100.00;97525.63;5113036;28;20388;-75
2022/11/05 08:33:46;;;;;;;1999.90;999.90;;;;;;;9.82;100.00;97529.84;5096048;28;20361;-78
2022/11/05 08:36:11;;;;;;;1999.90;999.90;;;;;;;9.84;100.00;97530.34;5108979;28;20465;-80
2022/11/05 08:38:37;;;;;;;1999.90;999.90;;;;;;;10.00;100.00;97533.59;5103472;28;20361;-77
2022/11/05 08:41:03;;;;;;;1999.90;999.90;;;;;;;9.98;100.00;97528.47;5113831;28;20028;-85
2022/11/05 08:43:28;;;;;;;1999.90;999.90;;;;;;;10.07;100.00;97534.84;5126650;28;20037;-84
2022/11/05 08:45:54;;;;;;;1999.90;999.90;;;;;;;10.16;100.00;97532.22;5123921;28;20004;-88
2022/11/05 08:48:19;;;;;;;1999.90;999.90;;;;;;;10.10;100.00;97530.69;5121732;28;20087;-83
2022/11/05 08:50:47;;;;;;;1999.90;999.90;;;;;;;10.25;100.00;97535.88;5119525;28;20028;-86
2022/11/05 08:53:13;;;;;;;1999.90;999.90;;;;;;;10.27;100.00;97538.31;5103665;28;20027;-81
2022/11/05 08:55:39;;;;;;;1999.90;999.90;;;;;;;10.57;100.00;97543.16;5101002;28;20457;-86
2022/11/05 08:58:09;;;;;;;1999.90;999.90;;;;;;;10.63;100.00;97547.41;5104385;28;20052;-75
2022/11/05 09:00:36;;;;;;;1999.90;999.90;;;;;;;10.42;100.00;97538.00;5105862;28;20046;-82
2022/11/05 09:03:03;;;;;;;1999.90;999.90;;;;;;;10.44;100.00;97538.50;5113084;28;20083;-79
2022/11/05 09:05:37;;;;;;;1999.90;999.90;;;;;;;10.48;100.00;97536.78;5113659;28;20036;-77
2022/11/05 09:08:23;;;;;;;1999.90;999.90;;;;;;;10.72;100.00;97524.50;5108346;28;20023;-81
2022/11/05 09:10:49;;;;;;;1999.90;999.90;;;;;;;11.13;100.00;97540.00;5120031;28;20046;-86
2022/11/05 09:13:15;;;;;;;1999.90;999.90;;;;;;;11.04;100.00;97539.13;5126458;28;20036;-86
2022/11/05 09:15:41;;;;;;;1999.90;999.90;;;;;;;11.09;100.00;97549.94;5105457;28;20026;-85
2022/11/05 09:18:11;;;;;;;1999.90;999.90;;;;;;;10.74;100.00;97544.16;5114999;28;20032;-76
2022/11/05 09:20:38;;;;;;;1999.90;999.90;;;;;;;11.01;100.00;97547.94;5105064;28;20027;-83
2022/11/05 09:23:04;;;;;;;1999.90;999.90;;;;;;;11.36;100.00;97543.59;5117184;28;20559;-76
2022/11/05 09:25:31;;;;;;;1999.90;999.90;;;;;;;11.20;100.00;97552.16;5103668;28;20047;-75
2022/11/05 09:28:09;;;;;;;1999.90;999.90;;;;;;;11.40;100.00;97566.50;5110310;28;20038;-75
2022/11/05 09:30:42;;;;;;;1999.90;999.90;;;;;;;11.28;100.00;97564.28;5098433;28;20966;-77
2022/11/05 09:33:07;;;;;;;1999.90;999.90;;;;;;;11.51;100.00;97563.19;5096814;28;20030;-78
2022/11/05 09:35:33;;;;;;;1999.90;999.90;;;;;;;11.47;100.00;97555.91;5105309;28;20031;-74
2022/11/05 09:37:58;;;;;;;1999.90;999.90;;;;;;;11.70;100.00;97558.38;5093844;28;20027;-75
2022/11/05 09:40:24;;;;;;;1999.90;999.90;;;;;;;11.66;100.00;97559.28;5099251;28;20117;-74
2022/11/05 09:42:53;;;;;;;1999.90;999.90;;;;;;;11.25;100.00;97551.22;5102455;28;20152;-73
2022/11/05 09:45:22;;;;;;;1999.90;999.90;;;;;;;11.53;100.00;97549.19;5100787;28;20028;-74
2022/11/05 09:48:13;;;;;;;1999.90;999.90;;;;;;;11.57;100.00;97545.53;5098843;28;20027;-72
2022/11/05 09:50:42;;;;;;;1999.90;999.90;;;;;;;12.02;100.00;97556.47;5096870;28;20121;-73
2022/11/05 09:53:18;;;;;;;1999.90;999.90;;;;;;;11.73;100.00;97560.50;5102549;28;20540;-74
2022/11/05 09:55:50;;;;;;;1999.90;999.90;;;;;;;11.72;100.00;97567.09;5102882;28;20020;-74
2022/11/05 09:58:37;;;;;;;1999.90;999.90;;;;;;;11.90;100.00;97568.03;5107499;28;20038;-73
2022/11/05 10:01:08;;;;;;;1999.90;999.90;;;;;;;12.43;100.00;97573.44;5095235;28;20485;-72
2022/11/05 10:03:43;;;;;;;1999.90;999.90;;;;;;;12.05;100.00;97577.78;5101244;28;20071;-77
2022/11/05 10:06:12;;;;;;;;;;;;;;;12.50;100.00;97576.53;5094539;28;20049;-75
2022/11/05 10:08:41;;;;;;;1999.90;999.90;;;;;;;12.63;100.00;97583.03;5113939;28;19911;-75
2022/11/05 10:11:19;;;;;;;1999.90;999.90;;;;;;;12.71;100.00;97579.53;5100106;28;20748;-75
2022/11/05 10:13:51;;;;;;;1999.90;999.90;;;;;;;12.56;100.00;97578.00;5108522;28;20023;-75
2022/11/05 10:16:37;;;;;;;1999.90;999.90;;;;;;;13.01;100.00;97580.56;5091765;28;20076;-74
2022/11/05 10:19:12;;;;;;;1999.90;999.90;;;;;;;12.82;100.00;97587.13;5110688;28;20476;-80
2022/11/05 10:21:37;;;;;;;1999.90;999.90;;;;;;;12.26;100.00;97585.16;5089766;28;20032;-74
2022/11/05 10:24:15;;;;;;;1999.90;999.90;;;;;;;11.78;100.00;97584.19;5106553;28;20118;-75
2022/11/05 10:26:42;;;;;;;1999.90;999.90;;;;;;;11.98;100.00;97580.97;5098066;28;20035;-77
2022/11/05 10:29:12;;;;;;;1999.90;999.90;;;;;;;11.81;100.00;97578.09;5109669;28;20085;-72
2022/11/05 10:31:37;;;;;;;1999.90;999.90;;;;;;;11.78;100.00;97579.53;5093664;28;20036;-73
2022/11/05 10:34:06;;;;;;;1999.90;999.90;;;;;;;11.86;100.00;97590.88;5107967;28;20028;-74
2022/11/05 10:36:36;;;;;;;1999.90;999.90;;;;;;;11.72;100.00;97591.75;5098277;28;20050;-73
2022/11/05 10:39:11;;;;;;;1999.90;999.90;;;;;;;11.47;100.00;97608.75;5100960;28;20072;-85
2022/11/05 10:41:57;;;;;;;1999.90;999.90;;;;;;;11.66;100.00;97612.13;5094758;28;20035;-86
2022/11/05 10:44:48;;;;;;;1999.90;999.90;;;;;;;11.44;100.00;97601.16;5091128;28;20032;-77
2022/11/05 10:47:51;;;;;;;1999.90;999.90;;;;;;;11.39;100.00;97597.72;5102350;28;20036;-76
2022/11/05 10:50:28;;;;;;;1999.90;999.90;;;;;;;11.50;100.00;97605.41;5093350;28;20027;-74
2022/11/05 10:53:15;;;;;;;1999.90;999.90;;;;;;;11.41;100.00;97601.78;5101225;28;20035;-73
2022/11/05 10:55:44;;;;;;;1999.90;999.90;;;;;;;11.65;100.00;97604.25;5112681;28;20016;-73
2022/11/05 10:58:13;;;;;;;1999.90;999.90;;;;;;;11.66;100.00;97598.44;5092597;28;20388;-81
2022/11/05 11:00:38;;;;;;;1999.90;999.90;;;;;;;11.45;100.00;97596.50;5102601;28;20028;-72
2022/11/05 11:03:24;;;;;;;1999.90;999.90;;;;;;;11.63;100.00;97593.59;5099561;28;20443;-73
2022/11/05 11:05:58;;;;;;;1999.90;999.90;;;;;;;11.64;100.00;97600.69;5093904;28;20052;-74
2022/11/05 11:08:24;;;;;;;1999.90;999.90;;;;;;;11.42;100.00;97592.44;5097600;28;20116;-75
2022/11/05 11:10:57;;;;;;;1999.90;999.90;;;;;;;11.64;100.00;97599.88;5112681;28;20077;-73
2022/11/05 11:13:28;;;;;;;1999.90;999.90;;;;;;;11.65;100.00;97599.56;5106481;28;20023;-74
2022/11/05 11:16:11;;;;;;;1999.90;999.90;;;;;;;11.70;100.00;97588.50;5103206;28;20030;-75
2022/11/05 11:18:38;;;;;;;1999.90;999.90;;;;;;;12.02;100.00;97589.38;5100930;28;20019;-74
2022/11/05 11:21:18;;;;;;;1999.90;999.90;;;;;;;12.14;100.00;97587.66;5099927;28;20476;-78
2022/11/05 11:24:02;;;;;;;1999.90;999.90;;;;;;;12.12;100.00;97594.59;5101312;28;20051;-76
2022/11/05 11:26:39;;;;;;;1999.90;999.90;;;;;;;12.39;100.00;97596.34;5102723;28;20028;-75
2022/11/05 11:29:28;;;;;;;1999.90;999.90;;;;;;;12.29;100.00;97584.50;5108848;28;20110;-76
2022/11/05 11:31:55;;;;;;;1999.90;999.90;;;;;;;12.48;100.00;97581.53;5104342;28;20122;-76
2022/11/05 11:34:33;;;;;;;1999.90;999.90;;;;;;;12.45;100.00;97564.88;5111430;28;20020;-76
2022/11/05 11:37:10;;;;;;;1999.90;999.90;;;;;;;12.80;100.00;97569.38;5098217;28;20024;-74
2022/11/05 11:39:37;;;;;;;1999.90;999.90;;;;;;;12.88;100.00;97585.84;5109781;28;20247;-77
2022/11/05 11:42:10;;;;;;;1999.90;999.90;;;;;;;13.08;100.00;97583.63;5111005;28;20026;-77
2022/11/05 11:44:42;;;;;;;1999.90;999.90;;;;;;;13.46;100.00;97583.88;5111361;28;20033;-74
2022/11/05 11:47:13;;;;;;;1999.90;999.90;;;;;;;13.31;100.00;97598.91;5111641;28;20042;-75